Latest Weather Observations for Maria Island

IDT60901

Issued at 10:21 am EST Wednesday 24 May 2017 (issued every 10 minutes, with the page automatically refreshed every 10 minutes)

About weather observations | Map of Hobart area stations | Latest observations for Hobart area | Other Formats
Station Details ID: 092124 Name: MARIA ISLAND (POINT LESUEUR) Lat: -42.66 Lon: 148.02 Height: 28.0 m
Data from the previous 72 hours. | See also: Recent months at Maria Island
Date/Time
EST
Temp
°C
App
Temp
°C
Dew
Point
°C
Rel
Hum
%
Delta-T
°C
Wind Press
QNH
hPa
Press
MSL
hPa
Rain since
9am
mm
Dir  Spd
km/h
Gust
km/h
Spd
kts
Gust
kts
24/10:00am 13.0 10.0 9.1 77 2.0 NNW 15 19 8 10 1005.7 1005.7 0.0
24/09:30am 13.2 9.9 9.6 79 1.8 NNW 17 20 9 11 1005.8 1005.8 0.0
24/09:00am 13.2 8.5 9.3 77 2.0 N 24 30 13 16 1005.4 1005.4 0.0
24/08:30am 13.2 8.3 9.8 80 1.7 N 26 32 14 17 1005.2 1005.2 0.0
24/08:00am 13.3 8.8 10.1 81 1.7 N 24 30 13 16 1005.3 1005.3 0.0
24/07:30am 13.0 7.2 9.4 79 1.8 N 30 33 16 18 1005.5 1005.5 0.0
24/07:00am 13.5 8.1 9.6 77 2.0 N 28 35 15 19 1005.7 1005.7 0.0
24/06:30am 13.5 8.5 9.6 77 2.0 N 26 32 14 17 1005.6 1005.6 0.0
24/06:00am 13.1 8.6 10.1 82 1.6 N 24 28 13 15 1005.7 1005.7 0.0
24/05:30am 12.8 9.1 9.4 80 1.7 N 19 22 10 12 1006.3 1006.3 0.0
24/05:00am 13.1 8.4 9.4 78 1.9 N 24 28 13 15 1006.6 1006.6 0.0
24/04:30am 13.1 8.1 9.4 78 1.9 N 26 30 14 16 1006.6 1006.6 0.0
24/04:00am 12.9 8.3 9.7 81 1.6 N 24 28 13 15 1006.9 1006.9 0.0
24/03:30am 12.9 7.5 9.4 79 1.8 NNW 28 32 15 17 1006.9 1006.9 0.0
24/03:00am 13.1 6.9 9.5 79 1.8 N 32 35 17 19 1007.1 1007.1 0.0
24/02:30am 13.0 8.0 9.4 79 1.8 NNW 26 28 14 15 1007.6 1007.6 0.0
24/02:00am 13.2 8.3 10.0 81 1.7 NNW 26 30 14 16 1008.0 1008.0 0.0
24/01:30am 13.2 9.0 9.8 80 1.7 N 22 30 12 16 1008.4 1008.4 0.0
24/01:00am 13.3 9.1 9.7 79 1.8 NNW 22 26 12 14 1008.6 1008.6 0.0
24/12:30am 13.5 9.8 10.1 80 1.8 N 20 22 11 12 1008.8 1008.8 0.0
24/12:00am 13.7 9.6 10.1 79 1.9 NNW 22 26 12 14 1009.1 1009.1 0.0
 
Date/Time
EST
Temp
°C
App
Temp
°C
Dew
Point
°C
Rel
Hum
%
Delta-T
°C
Wind Press
QNH
hPa
Press
MSL
hPa
Rain since
9am
mm
Dir  Spd
km/h
Gust
km/h
Spd
kts
Gust
kts
23/11:30pm 13.9 9.9 10.3 79 1.9 N 22 30 12 16 1009.3 1009.3 0.0
23/11:00pm 14.0 10.7 10.8 81 1.7 N 19 22 10 12 1009.6 1009.6 0.0
23/10:30pm 14.4 10.9 10.8 79 1.9 N 20 24 11 13 1010.1 1010.1 0.0
23/10:00pm 14.6 9.9 10.8 78 2.0 N 26 30 14 16 1010.5 1010.5 0.0
23/09:30pm 14.6 11.3 11.0 79 1.9 N 19 24 10 13 1010.8 1010.8 0.0
23/09:00pm 14.4 12.1 11.7 84 1.5 N 15 19 8 10 1011.2 1011.2 0.0
23/08:30pm 14.7 11.2 10.9 78 2.0 N 20 24 11 13 1011.5 1011.5 0.0
23/08:00pm 14.6 11.3 10.8 78 2.0 N 19 20 10 11 1011.5 1011.5 0.0
23/07:30pm 14.5 11.1 11.1 80 1.8 N 20 24 11 13 1011.7 1011.7 0.0
23/07:00pm 14.4 11.5 11.0 80 1.8 NNW 17 20 9 11 1011.3 1011.3 0.0
23/06:30pm 14.9 9.9 10.9 77 2.1 NNW 28 33 15 18 1011.5 1011.5 0.0
23/06:00pm 14.8 10.6 11.0 78 2.0 N 24 28 13 15 1011.1 1011.1 0.0
23/05:30pm 15.2 10.2 10.8 75 2.3 N 28 32 15 17 1010.9 1010.9 0.0
23/05:00pm 15.3 9.9 10.9 75 2.3 N 30 33 16 18 1010.9 1010.9 0.0
23/04:30pm 15.4 10.3 11.8 79 1.9 N 30 35 16 19 1011.1 1011.1 0.0
23/04:00pm 15.3 10.5 11.7 79 1.9 N 28 32 15 17 1010.9 1010.9 0.0
23/03:30pm 15.7 10.3 12.1 79 2.0 N 32 39 17 21 1010.7 1010.7 0.0
23/03:00pm 15.4 8.9 11.6 78 2.1 N 37 43 20 23 1010.4 1010.4 0.0
23/02:30pm 15.1 9.4 11.7 80 1.8 N 33 39 18 21 1011.1 1011.1 0.0
23/02:00pm 15.3 8.7 11.3 77 2.1 N 37 41 20 22 1011.1 1011.1 0.0
23/01:30pm 15.2 8.9 11.0 76 2.2 N 35 41 19 22 1011.4 1011.4 0.0
23/01:00pm 15.5 9.8 11.3 76 2.3 N 32 39 17 21 1011.8 1011.8 0.0
23/12:30pm 15.8 10.1 11.0 73 2.6 N 32 37 17 20 1012.2 1012.2 0.0
23/12:00pm 15.1 10.3 11.7 80 1.8 N 28 30 15 16 1012.6 1012.6 0.0
23/11:30am 15.6 9.6 10.8 73 2.6 N 33 37 18 20 1013.0 1013.0 0.0
23/11:00am 15.7 9.1 10.0 69 3.0 NNE 35 41 19 22 1013.2 1013.2 0.0
23/10:30am 15.1 8.5 9.9 71 2.7 N 35 43 19 23 1013.7 1013.7 0.0
23/10:00am 15.3 9.2 9.7 69 2.9 NNE 32 37 17 20 1013.7 1013.7 0.0
23/09:30am 15.2 9.2 10.0 71 2.7 NNE 32 37 17 20 1013.9 1013.9 0.0
23/09:00am 14.9 9.3 10.3 74 2.4 NNE 30 35 16 19 1014.1 1014.1 0.0
23/08:30am 14.7 11.0 10.1 74 2.4 NNE 20 24 11 13 1014.6 1014.6 0.0
23/08:00am 15.0 10.0 9.6 70 2.8 NNE 26 30 14 16 1014.5 1014.5 0.0
23/07:30am 14.9 9.2 9.9 72 2.6 N 30 35 16 19 1014.6 1014.6 0.0
23/07:00am 15.0 9.6 9.6 70 2.8 N 28 33 15 18 1014.3 1014.3 0.0
23/06:30am 14.5 9.3 10.1 75 2.3 NNE 28 33 15 18 1014.4 1014.4 0.0
23/06:00am 14.4 9.7 10.8 79 1.9 NNE 26 30 14 16 1014.6 1014.6 0.0
23/05:30am 14.2 9.6 11.2 82 1.6 N 26 32 14 17 1014.8 1014.8 0.0
23/05:00am 14.2 10.1 11.5 84 1.4 N 24 30 13 16 1014.8 1014.8 0.0
23/04:30am 14.8 10.4 10.4 75 2.3 N 24 28 13 15 1014.6 1014.6 0.0
23/04:00am 14.3 9.4 11.3 82 1.6 N 28 30 15 16 1015.0 1015.0 0.0
23/03:30am 14.6 8.9 11.0 79 1.9 N 32 35 17 19 1015.0 1015.0 0.0
23/03:00am 14.8 9.5 11.4 80 1.8 N 30 32 16 17 1015.1 1015.1 0.0
23/02:30am 14.8 8.7 11.6 81 1.7 N 35 39 19 21 1015.2 1015.2 0.0
23/02:00am 14.8 9.5 11.4 80 1.8 N 30 33 16 18 1015.4 1015.4 0.0
23/01:30am 14.8 10.2 11.2 79 1.9 N 26 32 14 17 1015.9 1015.9 0.0
23/01:00am 14.8 10.7 11.6 81 1.7 N 24 28 13 15 1016.2 1016.2 0.0
23/12:30am 14.7 10.2 11.5 81 1.7 N 26 30 14 16 1016.6 1016.6 0.0
23/12:00am 14.8 10.3 11.4 80 1.8 N 26 32 14 17 1016.6 1016.6 0.0
 
Date/Time
EST
Temp
°C
App
Temp
°C
Dew
Point
°C
Rel
Hum
%
Delta-T
°C
Wind Press
QNH
hPa
Press
MSL
hPa
Rain since
9am
mm
Dir  Spd
km/h
Gust
km/h
Spd
kts
Gust
kts
22/11:30pm 14.6 11.5 11.7 83 1.6 N 19 20 10 11 1017.1 1017.1 0.0
22/11:00pm 15.2 9.9 11.4 78 2.0 N 30 33 16 18 1017.2 1017.2 0.0
22/10:30pm 15.2 11.5 11.6 79 1.9 N 22 32 12 17 1017.4 1017.4 0.0
22/10:00pm 14.4 12.0 11.4 82 1.6 N 15 20 8 11 1017.7 1017.7 0.0
22/09:30pm 14.2 11.4 11.2 82 1.6 N 17 20 9 11 1017.5 1017.5 0.0
22/09:00pm 14.3 10.6 11.5 83 1.5 N 22 24 12 13 1017.5 1017.5 0.0
22/08:30pm 14.2 11.4 11.5 84 1.4 NNW 17 20 9 11 1017.3 1017.3 0.0
22/08:00pm 14.7 11.3 11.3 80 1.8 N 20 24 11 13 1017.3 1017.3 0.0
22/07:30pm 14.5 12.1 11.5 82 1.6 NNW 15 17 8 9 1017.4 1017.4 0.0
22/07:00pm 14.2 13.5 11.4 83 1.5 NW 6 6 3 3 1017.4 1017.4 0.0
22/06:30pm 13.6 11.7 11.7 88 1.0 NW 13 13 7 7 1017.2 1017.2 0.0
22/06:00pm 15.2 11.6 11.8 80 1.8 N 22 24 12 13 1017.0 1017.0 0.0
22/05:30pm 15.0 12.0 11.8 81 1.7 N 19 20 10 11 1016.9 1016.9 0.0
22/05:00pm 15.3 14.0 11.3 77 2.1 N 9 13 5 7 1016.8 1016.8 0.0
22/04:30pm 15.3 13.0 11.7 79 1.9 N 15 17 8 9 1016.9 1016.9 0.0
22/04:00pm 15.7 12.9 11.5 76 2.3 N 17 19 9 10 1016.8 1016.8 0.0
22/03:30pm 15.7 12.6 12.1 79 2.0 N 20 22 11 12 1016.8 1016.8 0.0
22/03:00pm 16.1 12.8 11.7 75 2.4 N 20 26 11 14 1016.7 1016.7 0.0
22/02:30pm 16.9 12.8 11.6 71 2.9 N 24 26 13 14 1016.6 1016.6 0.0
22/02:00pm 16.6 12.6 11.7 73 2.7 N 24 26 13 14 1016.6 1016.6 0.0
22/01:30pm 16.9 13.2 11.4 70 3.0 NNE 22 26 12 14 1016.5 1016.5 0.0
22/01:00pm 16.9 13.5 11.2 69 3.1 NNE 20 26 11 14 1016.9 1016.9 0.0
22/12:30pm 16.4 12.8 12.0 75 2.4 N 22 28 12 15 1016.9 1016.9 0.0
22/12:00pm 16.2 11.1 10.7 70 2.9 N 28 32 15 17 1017.1 1017.1 0.0
22/11:30am 16.0 10.9 10.5 70 2.9 N 28 32 15 17 1017.5 1017.5 0.0
22/11:00am 15.3 10.9 10.5 73 2.5 N 24 30 13 16 1018.0 1018.0 0.0
22/10:30am 15.0 11.0 10.4 74 2.4 N 22 28 12 15 1018.3 1018.3 0.0
22/10:00am 15.4 12.0 10.6 73 2.5 NNW 19 24 10 13 1018.4 1018.4 0.0
22/09:30am 14.5 11.9 9.5 72 2.6 NW 13 20 7 11 1018.8 1018.8 0.0
22/09:00am 14.2 9.7 10.0 76 2.2 N 24 30 13 16 1018.6 1018.6 1.8
22/08:30am 12.9 10.3 9.4 79 1.8 NW 13 19 7 10 1018.9 1018.9 1.8
22/08:00am 12.9 8.2 9.4 79 1.8 NNW 24 28 13 15 1018.6 1018.6 1.8
22/07:30am 11.8 10.2 8.6 81 1.6 WNW 7 11 4 6 1018.4 1018.4 1.8
22/07:00am 12.2 9.9 9.0 81 1.6 NW 11 15 6 8 1018.2 1018.2 1.8
22/06:30am 12.8 10.9 9.1 78 1.9 NNW 9 15 5 8 1017.8 1017.8 1.8
22/06:00am 13.5 11.7 9.4 76 2.1 NNW 9 13 5 7 1017.6 1017.6 1.8
22/05:30am 13.1 11.7 9.4 78 1.9 NNW 7 9 4 5 1017.6 1017.6 1.8
22/05:00am 12.9 11.1 9.4 79 1.8 NW 9 13 5 7 1017.5 1017.5 1.8
22/04:30am 13.5 11.4 9.6 77 2.0 NNW 11 15 6 8 1017.4 1017.4 1.8
22/04:00am 13.4 10.1 9.6 78 1.9 N 17 19 9 10 1017.2 1017.2 1.8
22/03:30am 13.2 11.1 9.6 79 1.8 NNW 11 17 6 9 1017.1 1017.1 1.8
22/03:00am 13.3 11.7 10.1 81 1.7 NNW 9 11 5 6 1017.1 1017.1 1.8
22/02:30am 13.9 10.2 9.3 74 2.3 WNW 19 28 10 15 1016.8 1016.8 1.8
22/02:00am 13.2 11.7 10.6 84 1.4 NW 9 11 5 6 1017.0 1017.0 1.8
22/01:30am 12.8 10.3 10.9 88 1.0 NW 15 19 8 10 1017.1 1017.1 1.8
22/01:00am 12.5 11.4 10.6 88 1.0 W 7 13 4 7 1017.2 1017.2 1.8
22/12:30am 12.6 10.8 10.8 89 0.9 WNW 11 15 6 8 1017.2 1017.2 1.8
22/12:00am 12.9 11.0 10.4 85 1.3 NW 11 15 6 8 1017.2 1017.2 1.8
 
Date/Time
EST
Temp
°C
App
Temp
°C
Dew
Point
°C
Rel
Hum
%
Delta-T
°C
Wind Press
QNH
hPa
Press
MSL
hPa
Rain since
9am
mm
Dir  Spd
km/h
Gust
km/h
Spd
kts
Gust
kts
21/11:30pm 13.4 12.5 10.6 83 1.5 N 6 9 3 5 1017.0 1017.0 1.8
21/11:00pm 13.7 13.1 10.3 80 1.8 N 4 6 2 3 1017.1 1017.1 1.8
21/10:30pm 13.8 12.7 10.0 78 2.0 WNW 6 9 3 5 1017.1 1017.1 1.8
21/10:00pm 13.9 14.0 10.1 78 2.0 CALM 0 2 0 1 1017.2 1017.2 1.8
21/09:30pm 13.6 13.4 10.6 82 1.6 NNW 2 4 1 2 1017.2 1017.2 1.8
21/09:00pm 13.2 12.5 10.2 82 1.5 ESE 4 7 2 4 1016.9 1016.9 1.8
21/08:30pm 14.2 14.3 10.2 77 2.1 CALM 0 0 0 0 1016.6 1016.6 1.8
21/08:00pm 13.5 13.0 10.7 83 1.5 NE 4 6 2 3 1016.5 1016.5 1.8
21/07:30pm 13.9 14.2 10.9 82 1.6 CALM 0 0 0 0 1016.3 1016.3 1.8
21/07:00pm 14.1 13.2 10.7 80 1.8 SSW 6 9 3 5 1016.1 1016.1 1.8
21/06:30pm 14.4 11.7 10.2 76 2.2 SSW 15 19 8 10 1015.7 1015.7 1.8
21/06:00pm 14.4 10.8 10.4 77 2.1 SW 20 28 11 15 1015.4 1015.4 1.8
21/05:30pm 14.4 11.4 10.8 79 1.9 SW 17 20 9 11 1015.2 1015.2 1.8
21/05:00pm 14.7 9.6 10.5 76 2.2 SW 28 32 15 17 1014.9 1014.9 1.8
21/04:30pm 14.7 9.2 10.7 77 2.1 SW 30 35 16 19 1014.7 1014.7 1.8
21/04:00pm 14.6 9.2 10.8 78 2.0 SSW 30 35 16 19 1014.5 1014.5 1.8
21/03:30pm 14.5 9.5 11.1 80 1.8 SSW 28 32 15 17 1014.3 1014.3 1.8
21/03:00pm 14.9 9.9 11.1 78 2.0 SSW 28 32 15 17 1014.0 1014.0 1.8
21/02:30pm 14.6 9.8 11.7 83 1.6 SSW 28 30 15 16 1013.9 1013.9 1.8
21/02:00pm 14.7 9.6 11.8 83 1.6 SSW 30 35 16 19 1013.7 1013.7 1.8
21/01:30pm 14.5 9.2 11.3 81 1.7 S 30 32 16 17 1013.7 1013.7 1.8
21/01:00pm 14.4 9.4 10.8 79 1.9 S 28 35 15 19 1013.8 1013.8 1.8
21/12:30pm 14.1 8.8 11.3 83 1.5 S 30 33 16 18 1013.9 1013.9 1.8
21/12:00pm 14.4 9.2 11.6 83 1.5 SSW 30 33 16 18 1014.2 1014.2 1.8
21/11:30am 13.9 8.3 11.6 86 1.2 SSW 32 37 17 20 1014.5 1014.5 1.8
21/11:00am 13.3 8.3 12.2 93 0.6 SSW 30 32 16 17 1015.0 1015.0 1.8
21/10:30am 12.9 7.9 12.3 96 0.3 SSW 30 32 16 17 1015.4 1015.4 1.8

Latest Capital City Observations: Canberra | Sydney | Melbourne | Brisbane | Adelaide | Perth | Hobart | Darwin

Other Formats:

Comma delimited format used in spreadsheet applications
http://www.bom.gov.au/fwo/IDT60901/IDT60901.95988.axf

JavaScript Object Notation format (JSON) in row-major order
http://www.bom.gov.au/fwo/IDT60901/IDT60901.95988.json